sensor_id;sensor_type;location;lat;lon;timestamp;pressure;altitude;pressure_sealevel;temperature;humidity
75775;BME280;64505;51.458;7.556;2023-04-24T00:00:21;98254.03;;;9.80;76.34
75775;BME280;64505;51.458;7.556;2023-04-24T00:02:22;98251.88;;;9.77;75.75
75775;BME280;64505;51.458;7.556;2023-04-24T00:04:25;98252.38;;;9.74;75.41
75775;BME280;64505;51.458;7.556;2023-04-24T00:06:27;98249.72;;;9.69;76.43
75775;BME280;64505;51.458;7.556;2023-04-24T00:08:35;98252.59;;;9.67;75.96
75775;BME280;64505;51.458;7.556;2023-04-24T00:10:37;98254.19;;;9.68;76.37
75775;BME280;64505;51.458;7.556;2023-04-24T00:12:38;98259.25;;;9.75;75.57
75775;BME280;64505;51.458;7.556;2023-04-24T00:14:39;98263.50;;;9.76;75.51
75775;BME280;64505;51.458;7.556;2023-04-24T00:16:41;98259.22;;;9.70;75.36
75775;BME280;64505;51.458;7.556;2023-04-24T00:18:43;98261.38;;;9.73;75.19
75775;BME280;64505;51.458;7.556;2023-04-24T00:20:46;98265.28;;;9.70;75.40
75775;BME280;64505;51.458;7.556;2023-04-24T00:22:47;98261.09;;;9.69;75.31
75775;BME280;64505;51.458;7.556;2023-04-24T00:24:49;98263.91;;;9.63;76.13
75775;BME280;64505;51.458;7.556;2023-04-24T00:26:50;98262.56;;;9.60;76.16
75775;BME280;64505;51.458;7.556;2023-04-24T00:28:52;98266.00;;;9.61;75.75
75775;BME280;64505;51.458;7.556;2023-04-24T00:30:53;98262.34;;;9.62;75.76
75775;BME280;64505;51.458;7.556;2023-04-24T00:32:55;98257.06;;;9.62;75.32
75775;BME280;64505;51.458;7.556;2023-04-24T00:34:56;98259.94;;;9.60;75.30
75775;BME280;64505;51.458;7.556;2023-04-24T00:36:58;98262.03;;;9.58;75.91
75775;BME280;64505;51.458;7.556;2023-04-24T00:38:59;98258.34;;;9.59;75.90
75775;BME280;64505;51.458;7.556;2023-04-24T00:41:01;98262.78;;;9.54;75.63
75775;BME280;64505;51.458;7.556;2023-04-24T00:43:02;98251.13;;;9.50;75.55
75775;BME280;64505;51.458;7.556;2023-04-24T00:45:04;98254.28;;;9.47;75.83
75775;BME280;64505;51.458;7.556;2023-04-24T00:47:07;98256.63;;;9.43;76.38
75775;BME280;64505;51.458;7.556;2023-04-24T00:49:08;98255.53;;;9.39;75.81
75775;BME280;64505;51.458;7.556;2023-04-24T00:51:10;98252.09;;;9.38;76.08
75775;BME280;64505;51.458;7.556;2023-04-24T00:53:11;98251.28;;;9.38;76.05
75775;BME280;64505;51.458;7.556;2023-04-24T00:55:12;98250.47;;;9.32;75.81
75775;BME280;64505;51.458;7.556;2023-04-24T00:57:15;98254.66;;;9.28;76.29
75775;BME280;64505;51.458;7.556;2023-04-24T00:59:17;98250.19;;;9.34;76.05
75775;BME280;64505;51.458;7.556;2023-04-24T01:01:20;98245.72;;;9.34;76.04
75775;BME280;64505;51.458;7.556;2023-04-24T01:03:24;98257.00;;;9.30;75.95
75775;BME280;64505;51.458;7.556;2023-04-24T01:05:27;98258.03;;;9.24;76.55
75775;BME280;64505;51.458;7.556;2023-04-24T01:07:29;98250.59;;;9.21;76.80
75775;BME280;64505;51.458;7.556;2023-04-24T01:09:31;98250.91;;;9.24;75.41
75775;BME280;64505;51.458;7.556;2023-04-24T01:11:32;98240.34;;;9.24;74.25
75775;BME280;64505;51.458;7.556;2023-04-24T01:13:34;98240.41;;;9.29;73.52
75775;BME280;64505;51.458;7.556;2023-04-24T01:15:35;98247.56;;;9.34;72.98
75775;BME280;64505;51.458;7.556;2023-04-24T01:17:37;98244.09;;;9.28;74.10
75775;BME280;64505;51.458;7.556;2023-04-24T01:19:40;98250.97;;;9.29;74.08
75775;BME280;64505;51.458;7.556;2023-04-24T01:21:43;98249.44;;;9.38;73.03
75775;BME280;64505;51.458;7.556;2023-04-24T01:23:45;98249.44;;;9.38;73.62
75775;BME280;64505;51.458;7.556;2023-04-24T01:25:46;98255.25;;;9.40;74.03
75775;BME280;64505;51.458;7.556;2023-04-24T01:27:49;98250.28;;;9.44;73.33
75775;BME280;64505;51.458;7.556;2023-04-24T01:29:51;98249.00;;;9.47;73.78
75775;BME280;64505;51.458;7.556;2023-04-24T01:31:53;98242.13;;;9.46;74.95
75775;BME280;64505;51.458;7.556;2023-04-24T01:33:56;98250.34;;;9.49;73.82
75775;BME280;64505;51.458;7.556;2023-04-24T01:35:58;98242.97;;;9.51;73.22
75775;BME280;64505;51.458;7.556;2023-04-24T01:37:59;98241.41;;;9.55;73.73
75775;BME280;64505;51.458;7.556;2023-04-24T01:40:00;98242.25;;;9.61;72.95
75775;BME280;64505;51.458;7.556;2023-04-24T01:42:02;98233.31;;;9.62;73.22
75775;BME280;64505;51.458;7.556;2023-04-24T01:44:04;98237.31;;;9.69;72.27
75775;BME280;64505;51.458;7.556;2023-04-24T01:46:06;98235.16;;;9.66;72.74
75775;BME280;64505;51.458;7.556;2023-04-24T01:48:07;98233.88;;;9.69;72.69
75775;BME280;64505;51.458;7.556;2023-04-24T01:50:09;98228.09;;;9.72;72.04
75775;BME280;64505;51.458;7.556;2023-04-24T01:52:11;98233.91;;;9.74;71.71
75775;BME280;64505;51.458;7.556;2023-04-24T01:54:12;98234.72;;;9.74;71.76
75775;BME280;64505;51.458;7.556;2023-04-24T01:56:14;98234.72;;;9.74;72.25
75775;BME280;64505;51.458;7.556;2023-04-24T01:58:16;98229.97;;;9.76;72.08
75775;BME280;64505;51.458;7.556;2023-04-24T02:00:17;98233.41;;;9.77;72.39
75775;BME280;64505;51.458;7.556;2023-04-24T02:02:19;98240.28;;;9.78;72.48
75775;BME280;64505;51.458;7.556;2023-04-24T02:04:22;98230.28;;;9.80;73.29
75775;BME280;64505;51.458;7.556;2023-04-24T02:06:24;98238.97;;;9.80;72.93
75775;BME280;64505;51.458;7.556;2023-04-24T02:08:25;98239.53;;;9.82;72.50
75775;BME280;64505;51.458;7.556;2023-04-24T02:10:28;98223.97;;;9.86;72.66
75775;BME280;64505;51.458;7.556;2023-04-24T02:12:30;98240.63;;;9.86;72.81
75775;BME280;64505;51.458;7.556;2023-04-24T02:14:31;98241.94;;;9.89;72.05
75775;BME280;64505;51.458;7.556;2023-04-24T02:16:33;98232.69;;;9.86;72.62
75775;BME280;64505;51.458;7.556;2023-04-24T02:18:35;98236.91;;;9.87;72.50
75775;BME280;64505;51.458;7.556;2023-04-24T02:20:36;98244.53;;;9.84;73.51
75775;BME280;64505;51.458;7.556;2023-04-24T02:22:38;98234.25;;;9.82;73.50
75775;BME280;64505;51.458;7.556;2023-04-24T02:24:39;98250.88;;;9.83;73.33
75775;BME280;64505;51.458;7.556;2023-04-24T02:26:41;98233.97;;;9.84;72.10
75775;BME280;64505;51.458;7.556;2023-04-24T02:28:42;98253.00;;;9.86;71.92
75775;BME280;64505;51.458;7.556;2023-04-24T02:30:43;98245.09;;;9.86;72.47
75775;BME280;64505;51.458;7.556;2023-04-24T02:32:45;98253.81;;;9.86;72.29
75775;BME280;64505;51.458;7.556;2023-04-24T02:34:46;98259.34;;;9.85;71.95
75775;BME280;64505;51.458;7.556;2023-04-24T02:36:48;98248.47;;;9.81;72.50
75775;BME280;64505;51.458;7.556;2023-04-24T02:38:50;98256.69;;;9.85;71.64
75775;BME280;64505;51.458;7.556;2023-04-24T02:40:51;98264.59;;;9.80;72.51
75775;BME280;64505;51.458;7.556;2023-04-24T02:42:53;98257.16;;;9.77;72.66
75775;BME280;64505;51.458;7.556;2023-04-24T02:44:54;98260.59;;;9.77;73.06
75775;BME280;64505;51.458;7.556;2023-04-24T02:46:56;98266.13;;;9.76;72.20
75775;BME280;64505;51.458;7.556;2023-04-24T02:48:57;98256.56;;;9.70;72.68
75775;BME280;64505;51.458;7.556;2023-04-24T02:50:59;98265.25;;;9.65;73.66
75775;BME280;64505;51.458;7.556;2023-04-24T02:53:00;98259.69;;;9.62;72.84
75775;BME280;64505;51.458;7.556;2023-04-24T02:55:02;98258.34;;;9.59;73.84
75775;BME280;64505;51.458;7.556;2023-04-24T02:57:03;98259.06;;;9.50;73.74
75775;BME280;64505;51.458;7.556;2023-04-24T02:59:05;98260.59;;;9.46;73.09
75775;BME280;64505;51.458;7.556;2023-04-24T03:01:06;98257.91;;;9.40;73.56
75775;BME280;64505;51.458;7.556;2023-04-24T03:03:08;98263.94;;;9.36;74.01
75775;BME280;64505;51.458;7.556;2023-04-24T03:05:09;98265.53;;;9.37;73.75
75775;BME280;64505;51.458;7.556;2023-04-24T03:07:13;98267.63;;;9.35;74.35
75775;BME280;64505;51.458;7.556;2023-04-24T03:09:15;98276.84;;;9.32;74.03
75775;BME280;64505;51.458;7.556;2023-04-24T03:11:16;98271.00;;;9.30;74.71
75775;BME280;64505;51.458;7.556;2023-04-24T03:13:18;98276.28;;;9.30;74.41
75775;BME280;64505;51.458;7.556;2023-04-24T03:15:19;98276.28;;;9.30;74.41
75775;BME280;64505;51.458;7.556;2023-04-24T03:17:21;98283.94;;;9.32;74.70
75775;BME280;64505;51.458;7.556;2023-04-24T03:19:22;98283.38;;;9.30;74.31
75775;BME280;64505;51.458;7.556;2023-04-24T03:21:24;98291.00;;;9.26;74.15
75775;BME280;64505;51.458;7.556;2023-04-24T03:23:25;98286.50;;;9.22;75.28
75775;BME280;64505;51.458;7.556;2023-04-24T03:25:27;98282.50;;;9.19;74.78
75775;BME280;64505;51.458;7.556;2023-04-24T03:27:28;98283.28;;;9.20;74.32
75775;BME280;64505;51.458;7.556;2023-04-24T03:29:29;98292.22;;;9.14;75.65
75775;BME280;64505;51.458;7.556;2023-04-24T03:31:31;98289.25;;;9.10;75.59
75775;BME280;64505;51.458;7.556;2023-04-24T03:33:32;98289.75;;;9.07;75.10
75775;BME280;64505;51.458;7.556;2023-04-24T03:35:34;98287.88;;;9.03;75.22
75775;BME280;64505;51.458;7.556;2023-04-24T03:37:35;98294.25;;;9.07;75.46
75775;BME280;64505;51.458;7.556;2023-04-24T03:39:37;98302.94;;;9.07;75.33
75775;BME280;64505;51.458;7.556;2023-04-24T03:41:38;98306.38;;;9.08;74.97
75775;BME280;64505;51.458;7.556;2023-04-24T03:43:40;98296.88;;;9.07;75.42
75775;BME280;64505;51.458;7.556;2023-04-24T03:45:41;98300.00;;;9.04;75.47
75775;BME280;64505;51.458;7.556;2023-04-24T03:47:43;98300.53;;;9.06;75.57
75775;BME280;64505;51.458;7.556;2023-04-24T03:49:44;98308.16;;;9.02;75.55
75775;BME280;64505;51.458;7.556;2023-04-24T03:51:46;98298.94;;;9.05;75.78
75775;BME280;64505;51.458;7.556;2023-04-24T03:53:47;98306.09;;;9.04;75.71
75775;BME280;64505;51.458;7.556;2023-04-24T03:55:48;98302.06;;;9.02;75.68
75775;BME280;64505;51.458;7.556;2023-04-24T03:57:50;98307.66;;;9.05;75.67
75775;BME280;64505;51.458;7.556;2023-04-24T03:59:51;98303.91;;;9.01;76.39
75775;BME280;64505;51.458;7.556;2023-04-24T04:01:54;98309.19;;;9.01;76.12
75775;BME280;64505;51.458;7.556;2023-04-24T04:03:56;98311.34;;;9.04;76.38
75775;BME280;64505;51.458;7.556;2023-04-24T04:05:57;98308.97;;;9.03;76.42
75775;BME280;64505;51.458;7.556;2023-04-24T04:07:59;98314.72;;;9.00;75.94
75775;BME280;64505;51.458;7.556;2023-04-24T04:10:01;98315.03;;;9.03;76.70
75775;BME280;64505;51.458;7.556;2023-04-24T04:12:03;98312.63;;;9.02;76.88
75775;BME280;64505;51.458;7.556;2023-04-24T04:14:04;98314.47;;;9.01;76.16
75775;BME280;64505;51.458;7.556;2023-04-24T04:16:06;98305.22;;;8.99;76.08
75775;BME280;64505;51.458;7.556;2023-04-24T04:18:08;98310.25;;;9.00;76.21
75775;BME280;64505;51.458;7.556;2023-04-24T04:20:10;98309.38;;;8.95;76.33
75775;BME280;64505;51.458;7.556;2023-04-24T04:22:12;98320.00;;;9.00;75.91
75775;BME280;64505;51.458;7.556;2023-04-24T04:24:13;98313.13;;;8.99;75.99
75775;BME280;64505;51.458;7.556;2023-04-24T04:26:15;98313.31;;;8.92;76.47
75775;BME280;64505;51.458;7.556;2023-04-24T04:28:16;98305.63;;;8.90;76.70
75775;BME280;64505;51.458;7.556;2023-04-24T04:30:21;98314.34;;;8.91;77.34
75775;BME280;64505;51.458;7.556;2023-04-24T04:32:22;98303.81;;;8.91;76.23
75775;BME280;64505;51.458;7.556;2023-04-24T04:34:24;98311.72;;;8.91;76.79
75775;BME280;64505;51.458;7.556;2023-04-24T04:36:25;98302.47;;;8.88;76.42
75775;BME280;64505;51.458;7.556;2023-04-24T04:38:27;98313.25;;;8.87;76.10
75775;BME280;64505;51.458;7.556;2023-04-24T04:40:31;98308.03;;;8.92;76.24
75775;BME280;64505;51.458;7.556;2023-04-24T04:42:33;98313.34;;;8.97;75.86
75775;BME280;64505;51.458;7.556;2023-04-24T04:44:41;98318.97;;;9.01;76.23
75775;BME280;64505;51.458;7.556;2023-04-24T04:46:42;98312.88;;;9.00;75.86
75775;BME280;64505;51.458;7.556;2023-04-24T04:48:45;98319.19;;;8.99;75.13
75775;BME280;64505;51.458;7.556;2023-04-24T04:50:46;98312.63;;;9.02;75.23
75775;BME280;64505;51.458;7.556;2023-04-24T04:52:48;98321.34;;;9.02;75.52
75775;BME280;64505;51.458;7.556;2023-04-24T04:54:49;98322.13;;;9.03;75.74
75775;BME280;64505;51.458;7.556;2023-04-24T04:56:51;98319.00;;;9.06;75.61
75775;BME280;64505;51.458;7.556;2023-04-24T04:58:52;98325.56;;;9.03;75.38
75775;BME280;64505;51.458;7.556;2023-04-24T05:00:54;98318.69;;;9.02;75.19
75775;BME280;64505;51.458;7.556;2023-04-24T05:02:55;98316.38;;;9.06;75.57
75775;BME280;64505;51.458;7.556;2023-04-24T05:05:13;98321.91;;;9.04;75.51
75775;BME280;64505;51.458;7.556;2023-04-24T05:07:14;98320.03;;;9.05;75.42
75775;BME280;64505;51.458;7.556;2023-04-24T05:09:16;98315.53;;;9.00;75.28
75775;BME280;64505;51.458;7.556;2023-04-24T05:11:17;98326.06;;;9.00;75.72
75775;BME280;64505;51.458;7.556;2023-04-24T05:13:19;98319.50;;;9.03;76.07
75775;BME280;64505;51.458;7.556;2023-04-24T05:15:32;98322.38;;;9.01;75.52
75775;BME280;64505;51.458;7.556;2023-04-24T05:17:33;98320.31;;;9.03;75.60
75775;BME280;64505;51.458;7.556;2023-04-24T05:19:35;98314.22;;;9.03;76.40
75775;BME280;64505;51.458;7.556;2023-04-24T05:21:39;98317.66;;;9.03;75.58
75775;BME280;64505;51.458;7.556;2023-04-24T05:23:41;98308.72;;;9.04;75.96
75775;BME280;64505;51.458;7.556;2023-04-24T05:25:42;98310.28;;;9.05;75.62
75775;BME280;64505;51.458;7.556;2023-04-24T05:27:44;98310.06;;;9.07;74.54
75775;BME280;64505;51.458;7.556;2023-04-24T05:29:46;98307.97;;;9.09;74.61
75775;BME280;64505;51.458;7.556;2023-04-24T05:31:48;98318.19;;;9.05;74.74
75775;BME280;64505;51.458;7.556;2023-04-24T05:33:49;98312.94;;;9.05;75.41
75775;BME280;64505;51.458;7.556;2023-04-24T05:35:51;98309.31;;;9.11;74.86
75775;BME280;64505;51.458;7.556;2023-04-24T05:37:53;98317.03;;;9.18;74.20
75775;BME280;64505;51.458;7.556;2023-04-24T05:39:54;98313.66;;;9.22;73.65
75775;BME280;64505;51.458;7.556;2023-04-24T05:41:56;98317.53;;;9.42;74.42
75775;BME280;64505;51.458;7.556;2023-04-24T05:43:59;98324.66;;;9.41;74.31
75775;BME280;64505;51.458;7.556;2023-04-24T05:46:00;98327.78;;;9.38;74.02
75775;BME280;64505;51.458;7.556;2023-04-24T05:48:03;98329.84;;;9.31;74.90
75775;BME280;64505;51.458;7.556;2023-04-24T05:50:05;98341.41;;;9.30;75.55
75775;BME280;64505;51.458;7.556;2023-04-24T05:52:07;98335.53;;;9.23;75.62
75775;BME280;64505;51.458;7.556;2023-04-24T05:54:10;98337.03;;;9.14;75.71
75775;BME280;64505;51.458;7.556;2023-04-24T05:56:13;98333.91;;;9.17;75.51
75775;BME280;64505;51.458;7.556;2023-04-24T05:58:14;98334.19;;;9.20;77.51
75775;BME280;64505;51.458;7.556;2023-04-24T06:00:16;98333.09;;;9.16;76.00
75775;BME280;64505;51.458;7.556;2023-04-24T06:02:20;98343.03;;;9.09;78.81
75775;BME280;64505;51.458;7.556;2023-04-24T06:04:22;98340.97;;;9.11;77.71
75775;BME280;64505;51.458;7.556;2023-04-24T06:06:24;98334.03;;;9.05;77.30
75775;BME280;64505;51.458;7.556;2023-04-24T06:08:26;98337.75;;;9.09;78.13
75775;BME280;64505;51.458;7.556;2023-04-24T06:10:28;98330.34;;;9.06;78.22
75775;BME280;64505;51.458;7.556;2023-04-24T06:12:29;98334.53;;;9.02;78.17
75775;BME280;64505;51.458;7.556;2023-04-24T06:14:31;98336.66;;;9.05;78.35
75775;BME280;64505;51.458;7.556;2023-04-24T06:16:33;98335.00;;;8.99;77.86
75775;BME280;64505;51.458;7.556;2023-04-24T06:18:34;98343.00;;;9.04;78.34
75775;BME280;64505;51.458;7.556;2023-04-24T06:20:36;98338.63;;;9.15;78.35
75775;BME280;64505;51.458;7.556;2023-04-24T06:22:40;98348.44;;;9.19;78.18
75775;BME280;64505;51.458;7.556;2023-04-24T06:24:42;98345.63;;;9.26;77.76
75775;BME280;64505;51.458;7.556;2023-04-24T06:26:43;98344.13;;;9.35;76.63
75775;BME280;64505;51.458;7.556;2023-04-24T06:28:44;98344.84;;;9.30;76.80
75775;BME280;64505;51.458;7.556;2023-04-24T06:30:46;98349.00;;;9.48;76.57
75775;BME280;64505;51.458;7.556;2023-04-24T06:32:47;98336.88;;;9.47;75.12
75775;BME280;64505;51.458;7.556;2023-04-24T06:34:51;98345.53;;;9.43;76.19
75775;BME280;64505;51.458;7.556;2023-04-24T06:36:54;98342.03;;;9.37;76.73
75775;BME280;64505;51.458;7.556;2023-04-24T06:38:56;98345.47;;;9.37;77.58
75775;BME280;64505;51.458;7.556;2023-04-24T06:40:58;98345.97;;;9.34;76.28
75775;BME280;64505;51.458;7.556;2023-04-24T06:42:59;98354.91;;;9.33;76.20
75775;BME280;64505;51.458;7.556;2023-04-24T06:45:04;98359.41;;;9.33;76.47
75775;BME280;64505;51.458;7.556;2023-04-24T06:47:12;98354.38;;;9.31;76.26
75775;BME280;64505;51.458;7.556;2023-04-24T06:49:16;98348.72;;;9.23;76.18
75775;BME280;64505;51.458;7.556;2023-04-24T06:51:18;98358.66;;;9.37;75.01
75775;BME280;64505;51.458;7.556;2023-04-24T06:53:19;98352.72;;;9.47;74.67
75775;BME280;64505;51.458;7.556;2023-04-24T06:55:21;98352.88;;;9.40;74.71
75775;BME280;64505;51.458;7.556;2023-04-24T06:57:22;98352.03;;;9.35;76.01
75775;BME280;64505;51.458;7.556;2023-04-24T06:59:24;98355.50;;;9.40;75.95
75775;BME280;64505;51.458;7.556;2023-04-24T07:01:26;98359.94;;;9.35;75.62
75775;BME280;64505;51.458;7.556;2023-04-24T07:03:27;98353.38;;;9.37;76.43
75775;BME280;64505;51.458;7.556;2023-04-24T07:05:29;98364.50;;;9.39;76.40
75775;BME280;64505;51.458;7.556;2023-04-24T07:07:30;98363.94;;;9.37;77.08
75775;BME280;64505;51.458;7.556;2023-04-24T07:09:32;98355.47;;;9.35;78.08
75775;BME280;64505;51.458;7.556;2023-04-24T07:11:33;98345.03;;;9.46;79.86
75775;BME280;64505;51.458;7.556;2023-04-24T07:13:35;98355.91;;;9.27;78.85
75775;BME280;64505;51.458;7.556;2023-04-24T07:15:36;98347.88;;;9.39;79.10
75775;BME280;64505;51.458;7.556;2023-04-24T07:17:38;98343.81;;;9.31;79.97
75775;BME280;64505;51.458;7.556;2023-04-24T07:19:40;98350.81;;;9.43;80.09
75775;BME280;64505;51.458;7.556;2023-04-24T07:21:42;98354.94;;;9.60;80.03
75775;BME280;64505;51.458;7.556;2023-04-24T07:23:43;98347.22;;;9.54;80.44
75775;BME280;64505;51.458;7.556;2023-04-24T07:25:44;98350.06;;;9.74;79.61
75775;BME280;64505;51.458;7.556;2023-04-24T07:27:46;98347.47;;;9.79;78.39
75775;BME280;64505;51.458;7.556;2023-04-24T07:29:48;98351.03;;;9.95;78.26
75775;BME280;64505;51.458;7.556;2023-04-24T07:31:49;98351.13;;;10.05;77.38
75775;BME280;64505;51.458;7.556;2023-04-24T07:33:51;98352.88;;;9.94;77.64
75775;BME280;64505;51.458;7.556;2023-04-24T07:35:55;98352.09;;;9.94;78.22
75775;BME280;64505;51.458;7.556;2023-04-24T07:37:56;98352.03;;;9.88;77.68
75775;BME280;64505;51.458;7.556;2023-04-24T07:39:58;98356.19;;;9.79;77.91
75775;BME280;64505;51.458;7.556;2023-04-24T07:41:59;98356.28;;;9.63;77.73
75775;BME280;64505;51.458;7.556;2023-04-24T07:44:01;98355.03;;;9.70;78.07
75775;BME280;64505;51.458;7.556;2023-04-24T07:46:02;98363.69;;;9.66;79.29
75775;BME280;64505;51.458;7.556;2023-04-24T07:48:04;98363.50;;;9.72;79.43
75775;BME280;64505;51.458;7.556;2023-04-24T07:50:06;98364.19;;;9.63;78.92
75775;BME280;64505;51.458;7.556;2023-04-24T07:52:07;98359.19;;;9.61;79.02
75775;BME280;64505;51.458;7.556;2023-04-24T07:54:09;98366.44;;;9.49;78.54
75775;BME280;64505;51.458;7.556;2023-04-24T07:56:10;98370.59;;;9.45;78.93
75775;BME280;64505;51.458;7.556;2023-04-24T07:58:12;98370.00;;;9.38;79.48
75775;BME280;64505;51.458;7.556;2023-04-24T08:00:14;98367.94;;;9.40;80.50
75775;BME280;64505;51.458;7.556;2023-04-24T08:02:15;98377.69;;;9.39;79.00
75775;BME280;64505;51.458;7.556;2023-04-24T08:04:17;98368.97;;;9.39;79.35
75775;BME280;64505;51.458;7.556;2023-04-24T08:06:19;98370.19;;;9.31;79.59
75775;BME280;64505;51.458;7.556;2023-04-24T08:08:22;98371.94;;;9.21;80.34
75775;BME280;64505;51.458;7.556;2023-04-24T08:10:25;98383.47;;;9.15;80.18
75775;BME280;64505;51.458;7.556;2023-04-24T08:12:28;98383.59;;;9.03;80.70
75775;BME280;64505;51.458;7.556;2023-04-24T08:14:30;98374.88;;;9.03;79.74
75775;BME280;64505;51.458;7.556;2023-04-24T08:16:32;98376.09;;;9.17;80.74
75775;BME280;64505;51.458;7.556;2023-04-24T08:18:34;98375.78;;;9.35;79.47
75775;BME280;64505;51.458;7.556;2023-04-24T08:20:37;98389.03;;;9.40;78.80
75775;BME280;64505;51.458;7.556;2023-04-24T08:22:39;98375.69;;;9.52;78.61
75775;BME280;64505;51.458;7.556;2023-04-24T08:24:41;98365.69;;;9.80;77.77
75775;BME280;64505;51.458;7.556;2023-04-24T08:26:43;98380.59;;;9.65;77.25
75775;BME280;64505;51.458;7.556;2023-04-24T08:28:44;98379.81;;;9.43;77.81
75775;BME280;64505;51.458;7.556;2023-04-24T08:30:46;98387.97;;;9.41;77.81
75775;BME280;64505;51.458;7.556;2023-04-24T08:32:48;98386.88;;;9.37;79.12
75775;BME280;64505;51.458;7.556;2023-04-24T08:34:50;98389.59;;;9.20;78.54
75775;BME280;64505;51.458;7.556;2023-04-24T08:36:53;98394.63;;;9.22;79.92
75775;BME280;64505;51.458;7.556;2023-04-24T08:38:55;98395.84;;;9.14;79.37
75775;BME280;64505;51.458;7.556;2023-04-24T08:40:58;98406.31;;;9.09;79.62
75775;BME280;64505;51.458;7.556;2023-04-24T08:43:00;98415.34;;;9.13;79.55
75775;BME280;64505;51.458;7.556;2023-04-24T08:45:02;98406.81;;;9.06;79.49
75775;BME280;64505;51.458;7.556;2023-04-24T08:47:04;98408.66;;;9.06;78.61
75775;BME280;64505;51.458;7.556;2023-04-24T08:49:06;98412.28;;;9.00;79.07
75775;BME280;64505;51.458;7.556;2023-04-24T08:51:08;98426.19;;;9.17;80.49
75775;BME280;64505;51.458;7.556;2023-04-24T08:53:10;98412.63;;;9.08;79.82
75775;BME280;64505;51.458;7.556;2023-04-24T08:55:12;98412.56;;;8.81;79.73
75775;BME280;64505;51.458;7.556;2023-04-24T08:57:14;98419.56;;;8.76;77.98
75775;BME280;64505;51.458;7.556;2023-04-24T08:59:16;98434.59;;;8.75;79.01
75775;BME280;64505;51.458;7.556;2023-04-24T09:01:19;98425.16;;;8.79;79.01
75775;BME280;64505;51.458;7.556;2023-04-24T09:03:21;98428.59;;;8.80;79.35
75775;BME280;64505;51.458;7.556;2023-04-24T09:05:23;98436.38;;;8.70;80.11
75775;BME280;64505;51.458;7.556;2023-04-24T09:07:30;98434.94;;;8.79;81.03
75775;BME280;64505;51.458;7.556;2023-04-24T09:09:38;98436.53;;;8.63;80.31
75775;BME280;64505;51.458;7.556;2023-04-24T09:11:39;98445.72;;;8.61;79.91
75775;BME280;64505;51.458;7.556;2023-04-24T09:13:42;98431.19;;;8.58;80.59
75775;BME280;64505;51.458;7.556;2023-04-24T09:15:44;98435.13;;;8.39;80.51
75775;BME280;64505;51.458;7.556;2023-04-24T09:17:46;98446.66;;;8.55;81.75
75775;BME280;64505;51.458;7.556;2023-04-24T09:19:49;98440.69;;;8.59;81.60
75775;BME280;64505;51.458;7.556;2023-04-24T09:21:52;98452.25;;;8.58;82.23
75775;BME280;64505;51.458;7.556;2023-04-24T09:24:07;98452.81;;;8.44;81.97
75775;BME280;64505;51.458;7.556;2023-04-24T09:26:09;98452.66;;;8.50;82.66
75775;BME280;64505;51.458;7.556;2023-04-24T09:28:11;98460.47;;;8.62;82.72
75775;BME280;64505;51.458;7.556;2023-04-24T09:30:13;98453.72;;;8.49;83.36
75775;BME280;64505;51.458;7.556;2023-04-24T09:32:19;98461.47;;;8.39;83.06
75775;BME280;64505;51.458;7.556;2023-04-24T09:34:27;98453.78;;;8.37;83.54
75775;BME280;64505;51.458;7.556;2023-04-24T09:36:33;98470.06;;;8.34;83.62
75775;BME280;64505;51.458;7.556;2023-04-24T09:38:36;98472.47;;;8.53;83.70
75775;BME280;64505;51.458;7.556;2023-04-24T09:40:39;98468.94;;;8.47;83.82
75775;BME280;64505;51.458;7.556;2023-04-24T09:42:46;98468.06;;;8.42;84.86
75775;BME280;64505;51.458;7.556;2023-04-24T09:44:49;98483.06;;;8.41;85.12
75775;BME280;64505;51.458;7.556;2023-04-24T09:47:08;98481.56;;;8.62;85.17
75775;BME280;64505;51.458;7.556;2023-04-24T09:49:14;98491.53;;;8.76;84.86
75775;BME280;64505;51.458;7.556;2023-04-24T09:51:33;98498.34;;;8.56;84.75
75775;BME280;64505;51.458;7.556;2023-04-24T09:53:35;98487.22;;;8.54;85.94
75775;BME280;64505;51.458;7.556;2023-04-24T09:55:42;98504.00;;;8.48;85.95
75775;BME280;64505;51.458;7.556;2023-04-24T09:57:54;98515.09;;;8.50;85.82
75775;BME280;64505;51.458;7.556;2023-04-24T09:59:57;98518.06;;;8.53;85.97
75775;BME280;64505;51.458;7.556;2023-04-24T10:02:00;98528.19;;;8.61;86.48
75775;BME280;64505;51.458;7.556;2023-04-24T10:04:02;98532.50;;;8.51;86.55
75775;BME280;64505;51.458;7.556;2023-04-24T10:06:04;98540.25;;;8.57;85.48
75775;BME280;64505;51.458;7.556;2023-04-24T10:08:11;98543.50;;;8.48;86.61
75775;BME280;64505;51.458;7.556;2023-04-24T10:10:13;98541.44;;;8.50;87.15
75775;BME280;64505;51.458;7.556;2023-04-24T10:12:14;98549.09;;;8.51;87.17
75775;BME280;64505;51.458;7.556;2023-04-24T10:14:18;98558.28;;;8.49;87.35
75775;BME280;64505;51.458;7.556;2023-04-24T10:16:21;98553.75;;;8.61;88.14
75775;BME280;64505;51.458;7.556;2023-04-24T10:18:24;98566.84;;;8.56;88.20
75775;BME280;64505;51.458;7.556;2023-04-24T10:20:28;98564.19;;;8.56;86.99
75775;BME280;64505;51.458;7.556;2023-04-24T10:22:32;98584.16;;;8.52;85.39
75775;BME280;64505;51.458;7.556;2023-04-24T10:24:34;98579.84;;;8.46;85.55
75775;BME280;64505;51.458;7.556;2023-04-24T10:26:38;98572.63;;;8.41;86.04
75775;BME280;64505;51.458;7.556;2023-04-24T10:28:41;98597.63;;;8.27;86.57
75775;BME280;64505;51.458;7.556;2023-04-24T10:30:43;98605.41;;;8.33;86.54
75775;BME280;64505;51.458;7.556;2023-04-24T10:32:45;98614.47;;;8.26;86.69
75775;BME280;64505;51.458;7.556;2023-04-24T10:34:47;98624.25;;;8.14;87.20
75775;BME280;64505;51.458;7.556;2023-04-24T10:36:51;98619.66;;;8.09;87.61
75775;BME280;64505;51.458;7.556;2023-04-24T10:38:58;98638.66;;;8.11;85.64
75775;BME280;64505;51.458;7.556;2023-04-24T10:41:11;98644.03;;;8.16;86.37
75775;BME280;64505;51.458;7.556;2023-04-24T10:43:18;98648.59;;;8.21;86.07
75775;BME280;64505;51.458;7.556;2023-04-24T10:45:21;98655.38;;;8.05;87.76
75775;BME280;64505;51.458;7.556;2023-04-24T10:47:24;98661.69;;;7.92;87.10
75775;BME280;64505;51.458;7.556;2023-04-24T10:49:30;98668.88;;;8.20;86.78
75775;BME280;64505;51.458;7.556;2023-04-24T10:51:49;98681.56;;;8.35;86.73
75775;BME280;64505;51.458;7.556;2023-04-24T10:53:51;98676.09;;;8.13;86.03
75775;BME280;64505;51.458;7.556;2023-04-24T10:56:08;98686.72;;;8.07;85.75